Time;durP1;ratioP1;P1;durP2;ratioP2;P2;SDS_P1;SDS_P2;PMS_P1;PMS_P2;Temp;Humidity;BMP_temperature;BMP_pressure;BME280_temperature;BME280_humidity;BME280_pressure;Samples;Min_cycle;Max_cycle;Signal;HPM_P1;HPM_P2
2022/04/21 00:00:15;;;;;;;11.18;6.38;;;7.80;99.90;;;;;;5143422;27;20041;-67
2022/04/21 00:02:41;;;;;;;12.32;6.30;;;7.70;99.90;;;;;;5146479;27;20516;-67
2022/04/21 00:05:10;;;;;;;9.10;7.10;;;7.80;99.90;;;;;;5145624;27;20114;-67
2022/04/21 00:07:37;;;;;;;8.63;6.28;;;7.80;99.90;;;;;;5140946;27;20047;-67
2022/04/21 00:10:04;;;;;;;9.27;6.75;;;7.70;99.90;;;;;;5142894;27;20274;-67
2022/04/21 00:12:30;;;;;;;10.30;6.60;;;7.80;99.90;;;;;;5142707;27;20051;-67
2022/04/21 00:14:56;;;;;;;10.57;6.25;;;7.60;99.90;;;;;;5147267;27;20026;-67
2022/04/21 00:17:22;;;;;;;8.82;7.00;;;7.70;99.90;;;;;;5146015;27;20332;-67
2022/04/21 00:19:48;;;;;;;9.85;6.95;;;7.50;99.90;;;;;;5140887;27;20043;-67
2022/04/21 00:24:58;;;;;;;9.82;6.05;;;7.70;99.90;;;;;;5141457;27;20050;-66
2022/04/21 00:27:24;;;;;;;9.20;7.25;;;7.40;99.90;;;;;;5142080;27;20039;-66
2022/04/21 00:29:49;;;;;;;9.40;7.03;;;7.40;99.90;;;;;;5144326;27;20586;-67
2022/04/21 00:32:15;;;;;;;9.00;7.28;;;7.50;99.90;;;;;;5140254;27;20051;-67
2022/04/21 00:34:41;;;;;;;11.70;7.22;;;7.20;99.90;;;;;;5143837;27;20046;-67
2022/04/21 00:37:07;;;;;;;9.15;7.00;;;7.30;99.90;;;;;;5146432;27;20054;-67
2022/04/21 00:39:33;;;;;;;10.55;6.93;;;7.30;99.90;;;;;;5129340;27;20051;-66
2022/04/21 00:42:00;;;;;;;11.68;7.55;;;7.20;99.90;;;;;;5145515;27;20080;-67
2022/04/21 00:44:26;;;;;;;10.43;7.13;;;7.20;99.90;;;;;;5147573;27;20088;-66
2022/04/21 00:47:02;;;;;;;9.25;6.88;;;7.30;99.90;;;;;;5146555;27;20047;-67
2022/04/21 00:49:30;;;;;;;12.68;7.72;;;7.30;99.90;;;;;;5143619;27;20043;-67
2022/04/21 00:51:58;;;;;;;9.50;7.05;;;7.20;99.90;;;;;;5145036;27;20040;-67
2022/04/21 00:54:23;;;;;;;12.55;7.28;;;7.30;99.90;;;;;;5143851;27;20042;-67
2022/04/21 00:56:50;;;;;;;12.00;8.50;;;7.30;99.90;;;;;;5145648;27;20047;-66
2022/04/21 00:59:16;;;;;;;11.63;7.70;;;7.40;99.90;;;;;;5144088;27;20049;-67
2022/04/21 01:04:28;;;;;;;9.35;6.20;;;7.30;99.90;;;;;;5139947;27;20050;-67
2022/04/21 01:06:55;;;;;;;10.82;7.22;;;7.20;99.90;;;;;;5127338;27;20058;-67
2022/04/21 01:09:21;;;;;;;9.07;7.95;;;7.20;99.90;;;;;;5143746;27;20562;-67
2022/04/21 01:11:50;;;;;;;9.77;6.95;;;7.30;99.90;;;;;;5125005;28;20480;-66
2022/04/21 01:14:17;;;;;;;7.70;6.20;;;7.20;99.90;;;;;;5144701;27;20047;-67
2022/04/21 01:16:43;;;;;;;9.98;7.28;;;7.00;99.90;;;;;;5145823;27;20281;-66
2022/04/21 01:19:09;;;;;;;11.55;7.93;;;6.60;99.90;;;;;;5145687;27;20039;-67
2022/04/21 01:21:35;;;;;;;11.35;7.88;;;6.50;99.90;;;;;;5143952;27;20490;-67
2022/04/21 01:24:01;;;;;;;12.40;8.00;;;6.40;99.90;;;;;;5146964;27;20115;-66
2022/04/21 01:26:34;;;;;;;10.95;8.32;;;6.50;99.90;;;;;;5145880;27;20050;-66
2022/04/21 01:29:05;;;;;;;10.00;7.00;;;6.50;99.90;;;;;;5142871;27;20104;-66
2022/04/21 01:31:31;;;;;;;9.93;7.22;;;6.50;99.90;;;;;;5146706;27;20102;-66
2022/04/21 01:33:58;;;;;;;9.60;7.07;;;6.30;99.90;;;;;;5145374;27;20439;-66
2022/04/21 01:36:24;;;;;;;12.93;8.82;;;6.30;99.90;;;;;;5145342;27;20067;-67
2022/04/21 01:41:34;;;;;;;11.77;8.00;;;6.30;99.90;;;;;;5142928;27;20567;-67
2022/04/21 01:44:00;;;;;;;12.05;8.70;;;6.40;99.90;;;;;;5141214;27;20043;-66
2022/04/21 01:46:25;;;;;;;14.20;9.48;;;6.50;99.90;;;;;;5136699;27;20502;-67
2022/04/21 01:48:51;;;;;;;12.80;9.25;;;6.60;99.90;;;;;;5143656;27;20118;-67
2022/04/21 01:51:17;;;;;;;14.90;9.13;;;6.80;99.90;;;;;;5135404;27;20036;-66
2022/04/21 01:53:43;;;;;;;13.02;9.63;;;6.60;99.90;;;;;;5140194;27;20047;-66
2022/04/21 01:56:08;;;;;;;11.63;8.88;;;6.60;99.90;;;;;;5140775;27;20401;-67
2022/04/21 01:58:34;;;;;;;11.45;8.40;;;6.50;99.90;;;;;;5144865;27;20047;-67
2022/04/21 02:01:00;;;;;;;12.18;8.50;;;6.40;99.90;;;;;;5144332;27;20075;-67
2022/04/21 02:03:25;;;;;;;10.38;8.82;;;6.30;99.90;;;;;;5144255;27;20054;-66
2022/04/21 02:05:51;;;;;;;11.52;8.55;;;6.20;99.90;;;;;;5142454;27;20040;-66
2022/04/21 02:08:17;;;;;;;13.75;8.32;;;6.20;99.90;;;;;;5141387;27;20042;-67
2022/04/21 02:10:42;;;;;;;10.43;8.18;;;6.00;99.90;;;;;;5146688;27;20042;-66
2022/04/21 02:13:08;;;;;;;10.82;8.50;;;6.00;99.90;;;;;;5145243;27;20058;-66
2022/04/21 02:15:34;;;;;;;14.32;10.10;;;6.00;99.90;;;;;;5143589;27;20099;-66
2022/04/21 02:18:01;;;;;;;12.68;8.55;;;5.90;99.90;;;;;;5144871;27;20043;-66
2022/04/21 02:20:27;;;;;;;10.10;8.23;;;5.90;99.90;;;;;;5138471;27;20054;-66
2022/04/21 02:22:52;;;;;;;12.52;9.18;;;5.80;99.90;;;;;;5143302;27;20039;-66
2022/04/21 02:25:18;;;;;;;13.82;9.43;;;5.80;99.90;;;;;;5142777;27;20043;-67
2022/04/21 02:27:49;;;;;;;14.90;9.02;;;6.00;99.90;;;;;;5144095;27;20101;-66
2022/04/21 02:30:17;;;;;;;14.65;8.98;;;6.10;99.90;;;;;;5144731;27;20082;-66
2022/04/21 02:32:43;;;;;;;12.10;9.38;;;5.90;99.90;;;;;;5140367;27;20079;-66
2022/04/21 02:35:10;;;;;;;12.05;9.57;;;5.90;99.90;;;;;;5136840;27;20048;-66
2022/04/21 02:37:38;;;;;;;13.95;10.13;;;5.80;99.90;;;;;;5122412;27;20054;-66
2022/04/21 02:40:05;;;;;;;15.57;9.70;;;5.80;99.90;;;;;;5145807;27;20035;-66
2022/04/21 02:42:31;;;;;;;15.68;10.30;;;5.70;99.90;;;;;;5144505;27;20043;-67
2022/04/21 02:44:57;;;;;;;11.73;9.10;;;5.70;99.90;;;;;;5143025;27;20104;-67
2022/04/21 02:47:22;;;;;;;12.43;10.35;;;5.70;99.90;;;;;;5122818;27;20043;-67
2022/04/21 02:49:50;;;;;;;14.27;9.88;;;5.70;99.90;;;;;;5144157;27;20076;-66
2022/04/21 02:52:17;;;;;;;13.68;9.52;;;5.80;99.90;;;;;;5143615;27;20504;-67
2022/04/21 02:57:30;;;;;;;11.95;9.20;;;5.80;99.90;;;;;;5139212;27;20042;-66
2022/04/21 03:00:03;;;;;;;12.90;9.77;;;5.80;99.90;;;;;;5142682;27;20112;-66
2022/04/21 03:02:29;;;;;;;14.00;9.27;;;5.80;99.90;;;;;;5142284;27;20039;-66
2022/04/21 03:04:55;;;;;;;10.57;9.13;;;5.70;99.90;;;;;;5137452;27;20046;-66
2022/04/21 03:07:22;;;;;;;12.75;9.88;;;5.70;99.90;;;;;;5144166;28;20067;-66
2022/04/21 03:09:48;;;;;;;12.13;8.65;;;5.60;99.90;;;;;;5141107;28;20038;-66
2022/04/21 03:12:14;;;;;;;15.18;10.40;;;5.70;99.90;;;;;;5142756;28;20521;-67
2022/04/21 03:14:41;;;;;;;15.27;10.18;;;5.60;99.90;;;;;;5143182;28;20063;-66
2022/04/21 03:17:08;;;;;;;14.70;10.18;;;5.70;99.90;;;;;;5140844;28;20047;-66
2022/04/21 03:19:34;;;;;;;13.32;9.73;;;5.70;99.90;;;;;;5119534;28;20098;-66
2022/04/21 03:24:45;;;;;;;12.68;10.20;;;5.80;99.90;;;;;;5143868;28;20068;-66
2022/04/21 03:27:12;;;;;;;13.40;9.90;;;5.70;99.90;;;;;;5142469;28;20054;-66
2022/04/21 03:29:38;;;;;;;14.10;10.65;;;5.60;99.90;;;;;;5135439;28;20044;-66
2022/04/21 03:32:13;;;;;;;11.25;8.75;;;5.70;99.90;;;;;;5137655;28;20086;-66
2022/04/21 03:34:43;;;;;;;13.90;10.00;;;5.50;99.90;;;;;;5139739;28;20060;-66
2022/04/21 03:37:10;;;;;;;13.93;9.98;;;5.50;99.90;;;;;;5146006;27;20072;-66
2022/04/21 03:39:37;;;;;;;11.60;9.35;;;5.60;99.90;;;;;;5146114;27;20129;-66
2022/04/21 03:42:04;;;;;;;12.48;9.02;;;5.30;99.90;;;;;;5148433;27;20035;-66
2022/04/21 03:44:29;;;;;;;14.07;9.50;;;5.30;99.90;;;;;;5145329;27;20058;-66
2022/04/21 03:46:58;;;;;;;14.18;10.50;;;5.30;99.90;;;;;;5147838;27;20090;-66
2022/04/21 03:49:28;;;;;;;14.15;10.40;;;5.40;99.90;;;;;;5149166;27;20063;-66
2022/04/21 03:51:54;;;;;;;;;;;5.40;99.90;;;;;;5148848;27;20130;-67
2022/04/21 03:54:22;;;;;;;16.00;10.68;;;5.40;99.90;;;;;;5147612;27;19926;-67
2022/04/21 03:56:51;;;;;;;12.35;9.43;;;5.40;99.90;;;;;;5146001;27;20104;-66
2022/04/21 03:59:21;;;;;;;12.02;9.35;;;5.30;99.90;;;;;;5129709;27;20054;-66
2022/04/21 04:01:47;;;;;;;12.65;10.43;;;5.30;99.90;;;;;;5147735;27;20050;-66
2022/04/21 04:04:13;;;;;;;16.02;10.02;;;5.40;99.90;;;;;;5141255;27;20044;-67
2022/04/21 04:12:10;;;;;;;15.65;9.50;;;5.30;99.90;;;;;;5147116;27;20055;-66
2022/04/21 04:14:37;;;;;;;12.35;9.85;;;5.30;99.90;;;;;;5144515;27;20086;-66
2022/04/21 04:17:05;;;;;;;12.57;10.20;;;5.10;99.90;;;;;;5145045;27;20086;-66
2022/04/21 04:19:31;;;;;;;14.63;9.32;;;5.10;99.90;;;;;;5144077;27;20046;-66
2022/04/21 04:21:57;;;;;;;14.15;10.30;;;5.10;99.90;;;;;;5143262;27;20039;-66
2022/04/21 04:24:22;;;;;;;17.35;11.38;;;5.20;99.90;;;;;;5146352;27;20044;-66
2022/04/21 04:26:48;;;;;;;14.00;10.52;;;5.10;99.90;;;;;;5147318;27;20051;-66
2022/04/21 04:29:15;;;;;;;13.52;9.95;;;5.10;99.90;;;;;;5144076;27;20035;-66
2022/04/21 04:31:41;;;;;;;13.50;10.07;;;5.20;99.90;;;;;;5146849;27;20051;-66
2022/04/21 04:34:08;;;;;;;13.32;10.15;;;5.20;99.90;;;;;;5142026;27;20035;-66
2022/04/21 04:36:34;;;;;;;16.83;11.40;;;5.20;99.90;;;;;;5096759;27;20263;-66
2022/04/21 04:39:00;;;;;;;18.05;11.48;;;5.40;99.90;;;;;;5145875;27;20431;-66
2022/04/21 04:44:10;;;;;;;14.65;10.98;;;5.50;99.90;;;;;;5143111;27;20044;-64
2022/04/21 04:46:35;;;;;;;16.77;12.88;;;5.40;99.90;;;;;;5092326;27;20035;-64
2022/04/21 04:49:10;;;;;;;17.15;11.90;;;5.40;99.90;;;;;;5104122;27;20043;-63
2022/04/21 04:51:41;;;;;;;14.13;11.07;;;5.50;99.90;;;;;;5107983;27;20044;-64
2022/04/21 04:54:08;;;;;;;14.02;11.88;;;5.50;99.90;;;;;;5103674;27;20047;-65
2022/04/21 04:56:35;;;;;;;16.50;12.02;;;5.50;99.90;;;;;;5103075;27;20128;-64
2022/04/21 04:59:01;;;;;;;15.95;11.90;;;5.50;99.90;;;;;;5126966;27;20067;-64
2022/04/21 05:01:35;;;;;;;16.60;12.20;;;5.50;99.90;;;;;;5087497;28;20081;-64
2022/04/21 05:04:12;;;;;;;15.52;10.73;;;5.50;99.90;;;;;;5129898;27;20050;-65
2022/04/21 05:06:52;;;;;;;14.60;11.20;;;5.60;99.90;;;;;;5117585;27;20048;-65
2022/04/21 05:09:20;;;;;;;18.33;11.63;;;5.60;99.90;;;;;;5138364;27;20092;-65
2022/04/21 05:11:48;;;;;;;18.33;11.80;;;5.60;99.90;;;;;;5110810;27;20303;-65
2022/04/21 05:14:14;;;;;;;16.45;11.70;;;5.60;99.90;;;;;;5121662;27;20198;-65
2022/04/21 05:16:40;;;;;;;15.50;12.23;;;5.70;99.90;;;;;;5104842;27;20698;-65
2022/04/21 05:19:07;;;;;;;17.15;11.65;;;5.70;99.90;;;;;;5122942;27;20085;-65
2022/04/21 05:21:34;;;;;;;16.42;11.23;;;5.80;99.90;;;;;;5122307;27;20580;-65
2022/04/21 05:24:01;;;;;;;16.73;11.45;;;5.90;99.90;;;;;;5122974;27;20030;-65
2022/04/21 05:26:28;;;;;;;14.27;11.25;;;6.00;99.90;;;;;;5116397;27;20121;-65
2022/04/21 05:28:55;;;;;;;16.13;12.10;;;6.30;99.90;;;;;;5122413;27;20054;-65
2022/04/21 05:31:21;;;;;;;15.48;11.20;;;6.40;99.90;;;;;;5121072;27;20058;-65
2022/04/21 05:33:47;;;;;;;13.90;11.27;;;6.50;99.90;;;;;;5124640;27;20047;-65
2022/04/21 05:36:13;;;;;;;15.85;11.80;;;6.60;99.90;;;;;;5101706;27;20042;-65
2022/04/21 05:38:39;;;;;;;13.98;10.98;;;6.70;99.90;;;;;;5110222;27;20043;-66
2022/04/21 05:41:06;;;;;;;16.52;11.25;;;6.80;99.90;;;;;;5102677;27;21207;-66
2022/04/21 05:43:43;;;;;;;15.07;11.02;;;7.00;99.90;;;;;;5116456;27;20040;-66
2022/04/21 05:46:14;;;;;;;13.23;10.70;;;7.10;99.90;;;;;;5123078;27;20505;-66
2022/04/21 05:48:41;;;;;;;13.80;10.80;;;7.10;99.90;;;;;;5117012;27;20047;-66
2022/04/21 05:51:09;;;;;;;13.48;9.73;;;7.20;99.90;;;;;;5127035;27;20050;-66
2022/04/21 05:53:39;;;;;;;13.27;9.68;;;7.30;99.90;;;;;;5117938;27;20144;-66
2022/04/21 05:56:07;;;;;;;16.05;10.98;;;7.50;99.90;;;;;;5125716;27;20035;-66
2022/04/21 05:58:33;;;;;;;12.90;10.10;;;7.60;99.90;;;;;;5116619;27;20471;-66
2022/04/21 06:01:05;;;;;;;12.43;9.88;;;7.60;99.90;;;;;;5108326;27;20042;-66
2022/04/21 06:03:31;;;;;;;13.55;10.38;;;7.60;99.90;;;;;;5116863;27;20804;-67
2022/04/21 06:05:56;;;;;;;12.13;9.70;;;7.80;99.90;;;;;;5103457;27;20070;-70
2022/04/21 06:08:23;;;;;;;13.63;9.45;;;7.90;99.90;;;;;;5129017;27;20361;-66
2022/04/21 06:10:49;;;;;;;10.95;9.35;;;7.90;99.90;;;;;;5137422;27;20343;-66
2022/04/21 06:13:15;;;;;;;11.02;8.65;;;7.90;99.90;;;;;;5104272;27;20079;-67
2022/04/21 06:15:43;;;;;;;16.40;9.60;;;8.00;99.90;;;;;;5110480;28;20052;-68
2022/04/21 06:18:09;;;;;;;9.60;7.80;;;8.20;99.90;;;;;;5105295;27;20132;-66
2022/04/21 06:20:35;;;;;;;12.05;8.68;;;8.40;99.90;;;;;;5131021;27;20078;-65
2022/04/21 06:23:01;;;;;;;10.45;8.20;;;8.40;99.90;;;;;;5103867;27;20059;-66
2022/04/21 06:25:27;;;;;;;10.20;7.78;;;8.70;99.90;;;;;;5130848;27;20055;-66
2022/04/21 06:27:53;;;;;;;13.13;8.23;;;8.80;99.90;;;;;;5121258;27;20052;-67
2022/04/21 06:30:19;;;;;;;9.50;8.18;;;8.90;99.90;;;;;;5127551;27;20047;-66
2022/04/21 06:32:45;;;;;;;12.18;8.85;;;8.90;99.90;;;;;;5120654;27;20058;-66
2022/04/21 06:35:12;;;;;;;10.65;7.72;;;9.20;99.90;;;;;;5123116;27;20615;-66
2022/04/21 06:37:39;;;;;;;9.25;7.43;;;9.20;99.90;;;;;;5102727;27;20372;-66
2022/04/21 06:40:05;;;;;;;8.48;7.35;;;9.30;99.90;;;;;;5105600;27;20058;-66
2022/04/21 06:42:31;;;;;;;8.70;6.90;;;9.30;99.90;;;;;;5124083;27;20050;-66
2022/04/21 06:50:25;;;;;;;7.10;6.15;;;9.50;99.90;;;;;;5132118;27;20058;-67
2022/04/21 06:52:51;;;;;;;8.15;6.70;;;9.60;99.90;;;;;;5118319;27;20051;-65
2022/04/21 06:55:16;;;;;;;7.93;6.22;;;9.70;99.90;;;;;;5121171;27;20196;-67
2022/04/21 06:57:42;;;;;;;7.38;6.57;;;9.90;99.90;;;;;;5123960;27;20051;-66
2022/04/21 07:00:09;;;;;;;6.40;5.60;;;9.90;99.90;;;;;;5118995;27;20046;-66
2022/04/21 07:02:38;;;;;;;6.10;5.50;;;10.10;99.90;;;;;;5123619;27;20122;-66
2022/04/21 07:05:12;;;;;;;8.38;6.60;;;10.10;99.90;;;;;;5116111;27;20116;-66
2022/04/21 07:07:42;;;;;;;7.45;6.22;;;10.40;99.90;;;;;;5105144;28;20501;-66
2022/04/21 07:10:09;;;;;;;6.82;5.75;;;10.40;99.90;;;;;;5120962;27;20043;-66
2022/04/21 07:12:35;;;;;;;7.50;6.13;;;10.50;99.90;;;;;;5122013;28;20150;-66
2022/04/21 07:15:03;;;;;;;6.63;5.70;;;10.70;99.90;;;;;;5116995;28;20135;-66
2022/04/21 07:17:29;;;;;;;7.78;5.22;;;10.70;99.90;;;;;;5128024;28;20036;-66
2022/04/21 07:19:55;;;;;;;8.65;6.03;;;10.80;99.90;;;;;;5113894;28;20149;-67
2022/04/21 07:22:24;;;;;;;6.85;5.80;;;11.00;99.90;;;;;;5127679;28;20107;-70
2022/04/21 07:24:53;;;;;;;6.85;5.65;;;10.90;99.90;;;;;;5104451;28;20047;-69
2022/04/21 07:27:19;;;;;;;6.80;5.95;;;11.10;99.90;;;;;;5133319;28;20082;-67
2022/04/21 07:29:45;;;;;;;5.70;5.20;;;11.30;99.90;;;;;;5116948;27;20049;-67
2022/04/21 07:32:11;;;;;;;8.32;5.60;;;11.30;99.90;;;;;;5114824;28;20043;-68
2022/04/21 07:34:37;;;;;;;6.30;5.43;;;11.20;99.90;;;;;;5106262;28;20149;-68
2022/04/21 07:37:04;;;;;;;7.57;4.93;;;11.40;99.90;;;;;;5123764;28;20097;-68
2022/04/21 07:39:30;;;;;;;5.85;5.03;;;11.50;99.90;;;;;;5101966;28;20118;-68
2022/04/21 07:41:59;;;;;;;7.60;4.95;;;11.50;99.90;;;;;;5132791;28;20050;-68
2022/04/21 07:44:29;;;;;;;6.43;5.50;;;11.70;99.90;;;;;;5106148;28;20067;-68
2022/04/21 07:46:55;;;;;;;5.93;5.03;;;11.60;99.90;;;;;;5129012;28;20043;-68
2022/04/21 07:54:51;;;;;;;4.85;4.18;;;11.70;99.90;;;;;;5109624;28;20103;-68
2022/04/21 07:57:17;;;;;;;7.45;5.07;;;11.90;99.90;;;;;;5112943;28;20051;-68
2022/04/21 07:59:43;;;;;;;7.85;4.78;;;11.90;99.90;;;;;;5112674;28;20458;-68
2022/04/21 08:02:09;;;;;;;8.65;5.10;;;11.90;99.90;;;;;;5132972;28;20058;-68
2022/04/21 08:04:37;;;;;;;5.63;4.72;;;12.20;99.90;;;;;;5119561;28;20071;-68
2022/04/21 08:07:04;;;;;;;4.93;4.00;;;12.30;99.90;;;;;;5122700;28;20102;-68
2022/04/21 08:09:30;;;;;;;5.68;4.50;;;12.60;99.90;;;;;;5115464;28;20059;-70
2022/04/21 08:11:56;;;;;;;5.43;3.97;;;12.70;99.90;;;;;;5115072;28;20031;-67
2022/04/21 08:14:23;;;;;;;5.75;4.95;;;12.60;99.90;;;;;;5115722;28;20108;-67
2022/04/21 08:16:48;;;;;;;6.35;4.13;;;12.80;99.90;;;;;;5117313;28;20277;-67
2022/04/21 08:19:14;;;;;;;8.52;4.85;;;12.70;99.90;;;;;;5123433;27;20306;-68
2022/04/21 08:21:42;;;;;;;6.53;4.75;;;12.80;99.90;;;;;;5112241;28;20061;-67
2022/04/21 08:35:04;;;;;;;10.48;4.53;;;13.30;99.90;;;;;;5111375;27;20043;-67
2022/04/21 08:37:33;;;;;;;7.05;4.60;;;13.50;99.90;;;;;;5092978;27;20055;-67
2022/04/21 08:40:03;;;;;;;8.35;4.85;;;13.50;99.90;;;;;;5115271;27;20088;-68
2022/04/21 08:42:30;;;;;;;8.68;4.80;;;13.60;99.90;;;;;;5118433;27;20045;-68
2022/04/21 08:44:59;;;;;;;4.75;3.95;;;13.70;99.90;;;;;;5121985;27;20047;-68
2022/04/21 08:47:28;;;;;;;4.40;4.00;;;13.90;99.90;;;;;;5127352;27;20083;-68
2022/04/21 08:50:01;;;;;;;4.95;4.13;;;14.00;99.90;;;;;;5120840;27;20056;-67
2022/04/21 08:52:28;;;;;;;6.68;4.20;;;14.10;99.90;;;;;;5133153;27;20051;-67
2022/04/21 08:54:54;;;;;;;5.95;3.97;;;14.10;99.90;;;;;;5128204;27;20047;-67
2022/04/21 08:57:22;;;;;;;5.53;4.47;;;14.20;99.90;;;;;;5139082;27;20138;-67
2022/04/21 08:59:47;;;;;;;4.78;4.07;;;14.10;99.90;;;;;;5119499;27;20058;-67
2022/04/21 09:02:13;;;;;;;4.50;3.75;;;14.00;99.90;;;;;;5109197;27;20072;-68
2022/04/21 09:04:39;;;;;;;5.15;4.10;;;14.00;99.90;;;;;;5125424;27;20163;-68
2022/04/21 09:07:18;;;;;;;4.82;3.92;;;14.20;99.90;;;;;;5111279;27;20074;-68
2022/04/21 09:10:13;;;;;;;5.60;3.92;;;14.30;99.90;;;;;;5114071;27;20270;-68
2022/04/21 09:12:45;;;;;;;4.85;4.07;;;14.30;99.90;;;;;;5112422;27;20054;-67
2022/04/21 09:15:15;;;;;;;7.82;4.43;;;14.50;99.90;;;;;;5110660;27;20390;-68
2022/04/21 09:17:45;;;;;;;;;;;14.60;99.90;;;;;;5109049;28;20107;-68
2022/04/21 09:20:12;;;;;;;5.25;4.15;;;14.60;99.90;;;;;;5115694;27;20370;-68
2022/04/21 09:22:47;;;;;;;6.05;4.63;;;14.70;99.90;;;;;;5103846;27;20077;-68
2022/04/21 09:25:13;;;;;;;5.68;4.15;;;14.70;99.90;;;;;;5122167;27;20062;-68
2022/04/21 09:27:43;;;;;;;6.40;4.20;;;15.10;99.90;;;;;;5133269;27;20039;-67
2022/04/21 09:30:13;;;;;;;4.18;3.78;;;15.10;99.90;;;;;;5113708;27;20478;-68
2022/04/21 09:32:40;;;;;;;;;;;15.00;99.90;;;;;;5122709;27;20124;-68
2022/04/21 09:35:07;;;;;;;8.02;4.20;;;15.40;99.90;;;;;;5126613;27;19919;-68
2022/04/21 09:37:43;;;;;;;6.50;4.07;;;15.30;99.90;;;;;;5097628;28;20073;-68
2022/04/21 09:40:12;;;;;;;4.97;4.20;;;15.10;99.90;;;;;;5120890;27;20131;-68
2022/04/21 09:42:37;;;;;;;5.03;4.28;;;15.20;99.90;;;;;;5114999;27;20040;-68
2022/04/21 09:47:54;;;;;;;8.13;5.03;;;15.20;99.90;;;;;;5115566;27;20110;-68
2022/04/21 09:50:23;;;;;;;6.68;4.22;;;15.30;99.90;;;;;;5119274;27;20162;-68
2022/04/21 09:52:52;;;;;;;7.57;5.20;;;15.30;99.90;;;;;;5127739;27;20510;-68
2022/04/21 09:55:27;;;;;;;8.05;4.85;;;15.40;99.90;;;;;;5125262;27;20054;-68
2022/04/21 09:58:07;;;;;;;6.80;4.45;;;15.50;99.90;;;;;;5117462;27;20028;-68
2022/04/21 10:00:34;;;;;;;8.32;4.25;;;15.30;99.90;;;;;;5127647;27;20050;-68
2022/04/21 10:03:02;;;;;;;7.13;4.25;;;15.50;99.90;;;;;;5113848;27;20407;-68
2022/04/21 10:05:31;;;;;;;8.27;4.28;;;15.50;99.90;;;;;;5129023;27;20479;-68
2022/04/21 10:08:00;;;;;;;7.60;5.20;;;15.80;99.90;;;;;;5101740;28;20093;-68
2022/04/21 10:10:28;;;;;;;6.00;4.93;;;15.80;99.90;;;;;;5134895;27;20039;-68
2022/04/21 10:12:56;;;;;;;7.00;4.07;;;15.80;99.90;;;;;;5108340;27;20547;-68
2022/04/21 10:15:23;;;;;;;5.15;4.32;;;15.70;99.90;;;;;;5132583;27;20050;-68
2022/04/21 10:17:49;;;;;;;5.20;4.30;;;15.80;99.90;;;;;;5114944;27;20078;-68
2022/04/21 10:20:15;;;;;;;5.40;4.05;;;15.60;99.90;;;;;;5134089;27;20035;-68
2022/04/21 10:22:42;;;;;;;4.45;3.88;;;15.70;99.90;;;;;;5122734;27;20062;-68
2022/04/21 10:25:09;;;;;;;5.88;4.00;;;15.90;99.90;;;;;;5135983;27;20035;-68
2022/04/21 10:27:44;;;;;;;10.35;4.28;;;16.00;99.90;;;;;;5110876;27;20051;-68
2022/04/21 10:30:21;;;;;;;7.40;4.95;;;15.80;99.90;;;;;;5128695;27;20429;-68
2022/04/21 10:32:52;;;;;;;5.35;4.63;;;15.90;99.90;;;;;;5104658;27;20035;-68
2022/04/21 10:35:26;;;;;;;6.72;4.10;;;16.20;99.90;;;;;;5133086;27;20546;-68
2022/04/21 10:38:14;;;;;;;6.15;4.70;;;16.00;99.90;;;;;;5080542;27;20891;-68
2022/04/21 10:41:03;;;;;;;7.13;4.80;;;16.20;99.90;;;;;;5130142;27;20117;-68
2022/04/21 10:43:48;;;;;;;13.60;5.17;;;16.40;99.90;;;;;;5104342;27;20093;-68
2022/04/21 10:46:32;;;;;;;7.75;3.88;;;16.30;99.90;;;;;;5107307;27;20118;-68
2022/04/21 10:48:59;;;;;;;6.55;4.00;;;16.50;99.90;;;;;;5097946;28;20070;-68
2022/04/21 10:57:12;;;;;;;6.70;4.47;;;16.50;99.90;;;;;;5104050;27;20120;-68
2022/04/21 10:57:31;;;;;;;6.20;4.68;;;16.30;99.90;;;;;;5106936;27;20069;-68
2022/04/21 11:00:03;;;;;;;5.97;4.38;;;16.50;99.90;;;;;;5124870;27;20051;-68
2022/04/21 11:02:43;;;;;;;9.23;4.88;;;16.30;99.90;;;;;;5114234;28;20082;-68
2022/04/21 11:05:27;;;;;;;6.93;4.60;;;16.50;99.90;;;;;;5123909;27;20039;-68
2022/04/21 11:07:59;;;;;;;7.78;5.05;;;16.40;99.90;;;;;;5102741;28;20057;-68
2022/04/21 11:10:39;;;;;;;5.00;4.45;;;16.40;99.90;;;;;;5112528;28;20058;-68
2022/04/21 11:13:14;;;;;;;5.72;4.80;;;16.40;99.90;;;;;;5122257;27;20038;-68
2022/04/21 11:15:50;;;;;;;4.90;4.28;;;16.50;99.90;;;;;;5129227;28;20051;-68
2022/04/21 11:18:30;;;;;;;6.03;3.88;;;16.60;99.90;;;;;;5134594;27;20461;-68
2022/04/21 11:21:26;;;;;;;6.50;4.38;;;16.70;99.90;;;;;;5129273;28;20054;-68
2022/04/21 11:23:51;;;;;;;5.80;4.25;;;16.70;99.90;;;;;;5107072;28;20051;-68
2022/04/21 11:26:25;;;;;;;6.20;5.10;;;16.70;99.90;;;;;;5128912;28;20070;-68
2022/04/21 11:28:50;;;;;;;9.18;4.55;;;16.70;99.90;;;;;;5107401;27;20051;-68
2022/04/21 11:31:20;;;;;;;5.75;4.05;;;16.60;99.90;;;;;;5121608;28;20043;-68
2022/04/21 11:33:46;;;;;;;5.88;4.55;;;16.60;99.90;;;;;;5117363;27;20042;-68
2022/04/21 11:36:13;;;;;;;7.28;4.93;;;16.40;99.90;;;;;;5109767;27;20050;-69
2022/04/21 11:38:49;;;;;;;5.30;4.80;;;16.50;99.90;;;;;;5107350;27;20103;-68
2022/04/21 11:41:15;;;;;;;5.88;4.60;;;16.80;99.90;;;;;;5136814;27;20679;-68
2022/04/21 11:43:46;;;;;;;7.05;5.45;;;16.80;99.90;;;;;;5093838;27;20598;-68
2022/04/21 11:46:13;;;;;;;6.53;5.30;;;17.00;99.90;;;;;;5118949;27;20042;-69
2022/04/21 11:48:40;;;;;;;6.95;5.18;;;17.10;99.90;;;;;;5102664;28;20155;-68
2022/04/21 11:51:08;;;;;;;5.10;4.70;;;17.20;99.90;;;;;;5135635;27;20042;-68
2022/04/21 11:53:36;;;;;;;6.57;5.05;;;17.10;99.90;;;;;;5108612;28;20055;-68
2022/04/21 11:56:05;;;;;;;7.10;5.25;;;17.00;99.90;;;;;;5114833;27;20050;-68
2022/04/21 11:58:36;;;;;;;6.35;4.50;;;17.10;99.90;;;;;;5114428;27;20065;-68
2022/04/21 12:06:44;;;;;;;6.97;5.80;;;16.90;99.90;;;;;;5125974;27;20156;-68
2022/04/21 12:09:15;;;;;;;7.50;5.72;;;16.80;99.90;;;;;;5122344;27;20106;-68
2022/04/21 12:11:42;;;;;;;7.60;5.78;;;16.70;99.90;;;;;;5135070;27;20311;-68
2022/04/21 12:14:08;;;;;;;7.28;5.97;;;16.60;99.90;;;;;;5114111;27;20061;-68
2022/04/21 12:16:37;;;;;;;6.65;5.95;;;16.50;99.90;;;;;;5140099;27;20039;-68
2022/04/21 12:19:19;;;;;;;7.13;5.90;;;16.50;99.90;;;;;;5105551;27;20054;-68
2022/04/21 12:21:56;;;;;;;9.77;6.63;;;16.50;99.90;;;;;;5142957;27;20043;-68
2022/04/21 12:24:45;;;;;;;7.90;6.40;;;16.50;99.90;;;;;;5102897;27;20131;-68
2022/04/21 12:27:15;;;;;;;7.13;5.70;;;16.60;99.90;;;;;;5128584;27;20461;-68
2022/04/21 12:29:48;;;;;;;;;;;16.60;99.90;;;;;;5125834;27;20409;-68
2022/04/21 12:32:16;;;;;;;6.80;5.65;;;16.80;99.90;;;;;;5143706;27;19930;-68
2022/04/21 12:34:43;;;;;;;10.95;5.93;;;17.40;99.90;;;;;;5124805;27;20054;-68
2022/04/21 12:37:09;;;;;;;9.50;6.40;;;17.60;99.90;;;;;;5134719;27;20042;-69
2022/04/21 12:39:35;;;;;;;6.78;5.97;;;17.60;99.90;;;;;;5134495;27;20134;-68
2022/04/21 12:42:03;;;;;;;8.73;5.70;;;17.80;99.90;;;;;;5133508;27;20038;-68
2022/04/21 12:44:29;;;;;;;9.27;5.78;;;17.70;99.90;;;;;;5113454;27;20043;-68
2022/04/21 12:47:00;;;;;;;8.05;5.50;;;18.00;99.90;;;;;;5133060;27;20467;-68
2022/04/21 12:49:54;;;;;;;7.35;5.40;;;18.10;99.90;;;;;;5124940;27;20055;-68
2022/04/21 12:52:44;;;;;;;8.38;6.15;;;17.90;99.90;;;;;;5104499;27;20518;-68
2022/04/21 12:55:22;;;;;;;8.75;6.45;;;18.00;99.90;;;;;;5122597;27;20047;-68
2022/04/21 12:58:05;;;;;;;7.03;5.70;;;18.00;99.90;;;;;;5120235;27;20421;-68
2022/04/21 13:00:32;;;;;;;6.65;5.38;;;17.90;99.90;;;;;;5120051;27;20410;-68
2022/04/21 13:02:59;;;;;;;7.75;5.95;;;17.90;99.90;;;;;;5127244;27;20050;-69
2022/04/21 13:05:25;;;;;;;7.13;6.07;;;17.90;99.90;;;;;;5113143;28;20153;-68
2022/04/21 13:07:51;;;;;;;6.38;5.60;;;18.20;99.90;;;;;;5126183;27;20057;-68
2022/04/21 13:10:16;;;;;;;6.30;5.70;;;18.40;99.90;;;;;;5110058;27;20063;-68
2022/04/21 13:12:42;;;;;;;6.57;5.03;;;18.70;98.80;;;;;;5137610;27;20047;-68
2022/04/21 13:15:09;;;;;;;5.78;5.18;;;18.80;97.90;;;;;;5104140;27;20043;-68
2022/04/21 13:17:35;;;;;;;8.85;5.70;;;19.00;98.80;;;;;;5138614;27;20081;-68
2022/04/21 13:20:01;;;;;;;7.13;5.60;;;19.30;96.90;;;;;;5104367;27;20039;-68
2022/04/21 13:22:27;;;;;;;6.32;5.43;;;19.50;96.70;;;;;;5136328;27;20228;-68
2022/04/21 13:24:52;;;;;;;6.53;5.75;;;19.60;97.10;;;;;;5107090;27;20157;-68
2022/04/21 13:27:21;;;;;;;7.10;5.60;;;19.60;96.30;;;;;;5133720;27;20090;-68
2022/04/21 13:29:47;;;;;;;6.83;5.80;;;19.80;94.70;;;;;;5109961;27;20055;-69
2022/04/21 13:34:57;;;;;;;7.35;6.05;;;20.00;91.30;;;;;;5101648;27;20522;-69
2022/04/21 13:37:23;;;;;;;8.85;5.93;;;20.10;93.30;;;;;;5118850;27;20077;-69
2022/04/21 13:39:48;;;;;;;8.20;6.07;;;20.20;90.50;;;;;;5125193;27;20043;-69
2022/04/21 13:42:14;;;;;;;8.32;6.35;;;20.30;92.10;;;;;;5129426;27;20509;-69
2022/04/21 13:44:40;;;;;;;6.47;5.68;;;20.50;92.50;;;;;;5096237;27;20053;-69
2022/04/21 13:47:06;;;;;;;8.88;5.32;;;20.70;92.70;;;;;;5136681;27;20041;-69
2022/04/21 13:49:32;;;;;;;7.97;6.03;;;21.00;92.00;;;;;;5104117;27;20170;-69
2022/04/21 13:51:59;;;;;;;6.95;6.20;;;21.60;92.20;;;;;;5082260;28;20070;-69